Aérodrome :
LOGIN :

S'inscrire | Disclaimer

   EN    FR    IT 

 










Légende :    VFR   VFR Marginal   IFR   IFR Intensif   IFR Très Intensif
Visi : 
Plafond : 
>= 8 km
>= 3000ft
5 à 8 km
1000 à 3000 ft
1500m à 5 km
500 à 1000 ft
800 à 1500m
200 à 500 ft
< 800m
< 200 ft
Symboles :   Orages  Brouillard  Fortes neiges  Fortes précipitations  Vent > 20 kt
SIGMETs :   Divers  Orages  Givrage  Turbulence  Onde Orograph.  Cendres Volcan.







- Altitude de l'aérodrome : 374 ft
- Code IATA : LIS


LPPT - Lisboa Portela

DERNIER METAR :
  • 220300Z 08005KT CAVOK 21/16 Q1014

METARs EXPIRÉS :
  • 220230Z VRB06KT CAVOK 22/13 Q1014
  • 220200Z 26004KT 220V300 CAVOK 23/11 Q1014
  • 220130Z 26006KT CAVOK 23/11 Q1014
  • 220100Z 28004KT CAVOK 23/12 Q1014
  • 220030Z VRB02KT CAVOK 22/13 Q1015

TAF TAF LPPT
Valide du 22 à 00h jusqu'au 23 à 06h UTC


212300Z 2200/2306 VRB03KT CAVOK
BECMG 2207/2209 10005KT
BECMG 2211/2213 24010KT
BECMG 2216/2218 32010KT
BECMG 2222/2224 36005KT
Pas de NOTAMs connus pour ce terrain.



MET'MAP, la Météo Aéronautique d'un coup d'oeil ! - Copyright ORBIFLY Décembre 2007 - Disclaimer

ORBIFLY MET'MAP TEAM :

Programmation & Développement : Alexandra Zaïnal
Conception & Développement : Baudouin d'Aumeries
Co-Programmation & Développement : Marc-Olivier Méhu
Soutien technique & logistique : Manuel Goepfert

Contact : metmap@orbifly.com




SOURCES & CREDITS :

   NOAA